Time;durP1;ratioP1;P1;durP2;ratioP2;P2;SDS_P1;SDS_P2;PMS_P1;PMS_P2;Temp;Humidity;BMP_temperature;BMP_pressure;BME280_temperature;BME280_humidity;BME280_pressure;Samples;Min_cycle;Max_cycle;Signal;HPM_P1;HPM_P2
2022/10/25 00:00:21;;;;;;;21.73;13.02;;;13.10;99.90;;;;;;5015127;28;20274;-68
2022/10/25 00:02:47;;;;;;;22.80;12.55;;;13.10;99.90;;;;;;5027770;28;20045;-64
2022/10/25 00:05:14;;;;;;;19.45;12.38;;;13.10;99.90;;;;;;5019744;28;20045;-65
2022/10/25 00:07:40;;;;;;;19.92;12.35;;;12.90;99.90;;;;;;5028652;28;20037;-63
2022/10/25 00:10:07;;;;;;;21.25;12.02;;;13.00;99.90;;;;;;5028780;28;20129;-64
2022/10/25 00:12:32;;;;;;;18.50;12.20;;;13.00;99.90;;;;;;5029020;28;20034;-64
2022/10/25 00:15:02;;;;;;;23.30;12.80;;;13.10;99.90;;;;;;5030059;28;20103;-63
2022/10/25 00:17:28;;;;;;;20.40;12.65;;;13.00;99.90;;;;;;5026181;28;20444;-64
2022/10/25 00:19:53;;;;;;;22.33;11.60;;;13.00;99.90;;;;;;5020418;28;20121;-65
2022/10/25 00:22:19;;;;;;;20.52;11.73;;;12.90;99.90;;;;;;5026335;28;20477;-65
2022/10/25 00:24:44;;;;;;;16.85;11.38;;;12.90;99.90;;;;;;5019956;28;20043;-63
2022/10/25 00:27:10;;;;;;;23.45;12.10;;;12.90;99.90;;;;;;5027406;28;20232;-63
2022/10/25 00:29:36;;;;;;;17.50;11.75;;;12.90;99.90;;;;;;5027785;28;20042;-63
2022/10/25 00:32:02;;;;;;;18.13;11.15;;;12.90;99.90;;;;;;5025421;28;20396;-64
2022/10/25 00:34:27;;;;;;;18.92;11.00;;;12.90;99.90;;;;;;5025220;28;20440;-66
2022/10/25 00:36:53;;;;;;;19.88;10.80;;;12.80;99.90;;;;;;5023066;28;20443;-63
2022/10/25 00:39:18;;;;;;;18.20;10.55;;;12.80;99.90;;;;;;5028389;28;20037;-62
2022/10/25 00:41:44;;;;;;;17.85;10.55;;;12.80;99.90;;;;;;5031950;28;20048;-63
2022/10/25 00:44:34;;;;;;;19.90;10.98;;;12.80;99.90;;;;;;5026764;28;20061;-65
2022/10/25 00:47:19;;;;;;;20.48;10.85;;;12.80;99.90;;;;;;5014584;28;20041;-63
2022/10/25 00:50:05;;;;;;;16.52;11.15;;;12.80;99.90;;;;;;5029661;28;20056;-63
2022/10/25 00:52:34;;;;;;;18.02;10.43;;;12.80;99.90;;;;;;5021943;28;20037;-63
2022/10/25 00:55:02;;;;;;;18.80;10.68;;;12.80;99.90;;;;;;5023159;28;20492;-64
2022/10/25 00:57:32;;;;;;;17.20;10.02;;;12.80;99.90;;;;;;5031478;28;20033;-63
2022/10/25 00:59:58;;;;;;;20.90;10.80;;;12.80;99.90;;;;;;5020326;28;20080;-65
2022/10/25 01:02:24;;;;;;;16.88;9.73;;;12.90;99.90;;;;;;5014498;28;20041;-67
2022/10/25 01:04:50;;;;;;;17.23;9.93;;;12.90;99.90;;;;;;5019053;28;20260;-63
2022/10/25 01:07:16;;;;;;;18.92;9.90;;;12.90;99.90;;;;;;5023431;28;20030;-66
2022/10/25 01:09:42;;;;;;;18.05;9.48;;;12.90;99.90;;;;;;5023749;28;20455;-62
2022/10/25 01:12:08;;;;;;;18.70;9.75;;;12.90;99.90;;;;;;5030929;28;20091;-63
2022/10/25 01:14:36;;;;;;;17.33;8.90;;;13.00;99.90;;;;;;5017151;28;20033;-63
2022/10/25 01:17:05;;;;;;;17.55;8.98;;;13.00;99.90;;;;;;5023427;28;20048;-62
2022/10/25 01:20:08;;;;;;;18.65;8.88;;;13.00;99.90;;;;;;5014708;28;20049;-66
2022/10/25 01:22:57;;;;;;;16.58;8.85;;;13.00;99.90;;;;;;5020413;28;20439;-63
2022/10/25 01:25:38;;;;;;;17.40;9.00;;;13.00;99.90;;;;;;5018751;28;20044;-66
2022/10/25 01:28:31;;;;;;;18.58;9.00;;;13.00;99.90;;;;;;5028538;28;20099;-63
2022/10/25 01:31:21;;;;;;;17.40;8.43;;;13.00;99.90;;;;;;5030514;28;20586;-67
2022/10/25 01:34:07;;;;;;;13.75;8.32;;;12.90;99.90;;;;;;5024227;28;20052;-63
2022/10/25 01:37:00;;;;;;;24.02;9.20;;;12.90;99.90;;;;;;5024624;28;20050;-63
2022/10/25 01:39:34;;;;;;;16.95;8.15;;;12.90;99.90;;;;;;5021947;28;20452;-63
2022/10/25 01:42:05;;;;;;;15.95;8.02;;;12.90;99.90;;;;;;5028708;28;20080;-62
2022/10/25 01:44:49;;;;;;;19.42;8.75;;;12.90;99.90;;;;;;5023835;28;20034;-62
2022/10/25 01:47:20;;;;;;;13.20;8.40;;;12.90;99.90;;;;;;5024856;28;20042;-62
2022/10/25 01:49:56;;;;;;;15.25;8.57;;;12.90;99.90;;;;;;5025126;28;20118;-65
2022/10/25 01:52:23;;;;;;;12.93;8.40;;;12.90;99.90;;;;;;5031046;28;20045;-62
2022/10/25 01:54:49;;;;;;;14.38;8.18;;;12.90;99.90;;;;;;5016700;28;20049;-66
2022/10/25 01:57:24;;;;;;;16.02;8.35;;;12.80;99.90;;;;;;5026942;28;20033;-62
2022/10/25 02:00:02;;;;;;;17.58;8.68;;;12.90;99.90;;;;;;5013884;28;20449;-65
2022/10/25 02:02:41;;;;;;;19.30;9.25;;;12.90;99.90;;;;;;5019559;28;20034;-65
2022/10/25 02:05:23;;;;;;;17.45;9.05;;;13.00;99.90;;;;;;5019189;28;20041;-62
2022/10/25 02:07:57;;;;;;;15.65;9.00;;;13.00;99.90;;;;;;5027285;28;20049;-67
2022/10/25 02:10:31;;;;;;;15.55;8.63;;;13.00;99.90;;;;;;5016549;28;20073;-62
2022/10/25 02:13:09;;;;;;;19.45;9.35;;;13.00;99.90;;;;;;5015469;28;20045;-62
2022/10/25 02:15:52;;;;;;;17.08;8.73;;;13.00;99.90;;;;;;5021418;28;20046;-63
2022/10/25 02:18:22;;;;;;;17.80;9.25;;;13.00;99.90;;;;;;5027806;28;20079;-64
2022/10/25 02:20:49;;;;;;;22.02;9.40;;;13.00;99.90;;;;;;5018334;28;20045;-62
2022/10/25 02:23:17;;;;;;;15.38;9.30;;;13.10;99.90;;;;;;5025896;28;20217;-64
2022/10/25 02:25:44;;;;;;;19.52;10.18;;;13.10;99.90;;;;;;5016884;28;20038;-62
2022/10/25 02:28:11;;;;;;;19.42;9.63;;;13.10;99.90;;;;;;5026858;28;20124;-62
2022/10/25 02:30:40;;;;;;;20.38;9.95;;;13.10;99.90;;;;;;5023853;28;20422;-62
2022/10/25 02:33:05;;;;;;;21.05;10.23;;;13.10;99.90;;;;;;5020261;28;20121;-63
2022/10/25 02:35:31;;;;;;;18.35;10.20;;;13.10;99.90;;;;;;5024183;28;20206;-64
2022/10/25 02:37:56;;;;;;;19.70;10.15;;;13.10;99.90;;;;;;5011791;28;20489;-64
2022/10/25 02:40:23;;;;;;;20.15;10.55;;;13.20;99.90;;;;;;5028559;28;20373;-62
2022/10/25 02:42:49;;;;;;;18.40;9.82;;;13.20;99.90;;;;;;5024371;28;20531;-65
2022/10/25 02:45:14;;;;;;;15.18;9.68;;;13.20;99.90;;;;;;5015787;28;20073;-62
2022/10/25 02:47:40;;;;;;;19.20;9.80;;;13.20;99.90;;;;;;5010695;28;20069;-62
2022/10/25 02:50:06;;;;;;;19.15;10.50;;;13.20;99.90;;;;;;5022975;28;20048;-63
2022/10/25 02:52:31;;;;;;;19.35;9.48;;;13.20;99.90;;;;;;5027180;28;20189;-64
2022/10/25 02:54:57;;;;;;;22.77;10.50;;;13.20;99.90;;;;;;5018899;28;20138;-65
2022/10/25 02:57:23;;;;;;;17.63;9.90;;;13.20;99.90;;;;;;5025267;28;20034;-63
2022/10/25 02:59:48;;;;;;;22.17;10.63;;;13.20;99.90;;;;;;5027688;28;20041;-67
2022/10/25 03:02:14;;;;;;;19.88;10.20;;;13.20;99.90;;;;;;5015165;28;20118;-63
2022/10/25 03:04:39;;;;;;;20.27;11.23;;;13.10;99.90;;;;;;5021288;28;20037;-65
2022/10/25 03:07:05;;;;;;;20.88;10.30;;;13.20;99.90;;;;;;5021766;28;20414;-64
2022/10/25 03:09:31;;;;;;;21.80;9.98;;;13.10;99.90;;;;;;5021777;28;20037;-64
2022/10/25 03:11:56;;;;;;;17.38;9.93;;;13.10;99.90;;;;;;5028500;28;20483;-63
2022/10/25 03:14:22;;;;;;;22.70;11.00;;;13.10;99.90;;;;;;5019563;28;20041;-64
2022/10/25 03:16:48;;;;;;;16.05;10.00;;;13.10;99.90;;;;;;5022613;28;20064;-66
2022/10/25 03:19:13;;;;;;;20.58;10.82;;;13.10;99.90;;;;;;5012003;28;20070;-64
2022/10/25 03:21:39;;;;;;;20.38;10.23;;;13.20;99.90;;;;;;5024840;28;20033;-65
2022/10/25 03:24:06;;;;;;;17.98;10.63;;;13.10;99.90;;;;;;5026500;28;20507;-64
2022/10/25 03:26:32;;;;;;;21.92;10.27;;;13.10;99.90;;;;;;5027227;28;20511;-65
2022/10/25 03:28:57;;;;;;;18.73;10.85;;;13.10;99.90;;;;;;5023298;28;20077;-65
2022/10/25 03:31:24;;;;;;;18.55;10.02;;;13.10;99.90;;;;;;5029156;28;20033;-64
2022/10/25 03:33:50;;;;;;;20.50;9.68;;;13.20;99.90;;;;;;5023612;28;20065;-65
2022/10/25 03:36:16;;;;;;;22.25;11.02;;;13.20;99.90;;;;;;5027770;28;20049;-65
2022/10/25 03:38:42;;;;;;;21.35;10.05;;;13.20;99.90;;;;;;5020803;28;20512;-65
2022/10/25 03:41:07;;;;;;;20.83;10.60;;;13.20;99.90;;;;;;5022011;28;20045;-65
2022/10/25 03:43:33;;;;;;;23.00;10.38;;;13.20;99.90;;;;;;5020894;28;20367;-65
2022/10/25 03:45:59;;;;;;;18.88;9.63;;;13.20;99.90;;;;;;5019914;28;20041;-64
2022/10/25 03:48:25;;;;;;;21.45;10.80;;;13.20;99.90;;;;;;5026836;28;20049;-65
2022/10/25 03:50:51;;;;;;;20.88;10.07;;;13.20;99.90;;;;;;5012697;28;20042;-65
2022/10/25 03:53:17;;;;;;;20.67;10.65;;;13.20;99.90;;;;;;5026274;28;20041;-65
2022/10/25 03:55:42;;;;;;;21.75;10.55;;;13.20;99.90;;;;;;5028151;28;20119;-64
2022/10/25 03:58:08;;;;;;;15.70;9.68;;;13.10;99.90;;;;;;5025252;28;20440;-65
2022/10/25 04:00:33;;;;;;;16.30;9.80;;;13.10;99.90;;;;;;5024414;28;20041;-64
2022/10/25 04:03:00;;;;;;;17.00;9.60;;;13.10;99.90;;;;;;5032935;28;20029;-65
2022/10/25 04:05:26;;;;;;;24.10;9.57;;;13.10;99.90;;;;;;5024141;28;20042;-64
2022/10/25 04:07:52;;;;;;;24.85;10.13;;;13.10;99.90;;;;;;5032568;28;20464;-65
2022/10/25 04:10:19;;;;;;;19.52;10.65;;;13.10;99.90;;;;;;5022421;28;20096;-65
2022/10/25 04:12:48;;;;;;;28.58;10.82;;;13.10;99.90;;;;;;5032611;28;20087;-65
2022/10/25 04:15:14;;;;;;;17.38;9.55;;;13.20;99.90;;;;;;5023241;28;20042;-64
2022/10/25 04:17:40;;;;;;;20.20;9.52;;;13.10;99.90;;;;;;5028914;28;20076;-65
2022/10/25 04:20:06;;;;;;;18.67;9.95;;;13.20;99.90;;;;;;5025901;28;20065;-66
2022/10/25 04:22:32;;;;;;;21.70;9.90;;;13.20;99.90;;;;;;5020444;28;20129;-65
2022/10/25 04:24:58;;;;;;;20.88;9.52;;;13.20;99.90;;;;;;5032238;28;20044;-65
2022/10/25 04:27:24;;;;;;;23.10;9.77;;;13.20;99.90;;;;;;5020331;28;20113;-65
2022/10/25 04:29:49;;;;;;;21.13;9.30;;;13.20;99.90;;;;;;5017425;28;20034;-65
2022/10/25 04:32:15;;;;;;;18.75;8.90;;;13.30;99.90;;;;;;5020139;28;20033;-64
2022/10/25 04:34:41;;;;;;;22.77;9.25;;;13.30;99.90;;;;;;5024130;28;20160;-65
2022/10/25 04:37:06;;;;;;;22.92;8.65;;;13.20;99.90;;;;;;5030088;28;20120;-66
2022/10/25 04:39:32;;;;;;;24.30;9.27;;;13.20;99.90;;;;;;5027228;28;20113;-65
2022/10/25 04:41:57;;;;;;;14.63;8.52;;;13.20;99.90;;;;;;5019685;28;20041;-65
2022/10/25 04:44:23;;;;;;;20.13;8.13;;;13.20;99.90;;;;;;5027535;28;20064;-64
2022/10/25 04:46:50;;;;;;;17.75;8.43;;;13.20;99.90;;;;;;5019739;28;20045;-66
2022/10/25 04:49:16;;;;;;;18.13;7.88;;;13.10;99.90;;;;;;5019664;28;20139;-65
2022/10/25 04:51:42;;;;;;;16.77;8.02;;;13.10;99.90;;;;;;5018996;28;20044;-65
2022/10/25 04:54:10;;;;;;;17.77;7.97;;;13.20;99.90;;;;;;5022599;28;20034;-65
2022/10/25 04:56:35;;;;;;;19.05;7.75;;;13.20;99.90;;;;;;5025268;28;20056;-64
2022/10/25 04:59:01;;;;;;;21.70;7.95;;;13.10;99.90;;;;;;5023140;28;20037;-64
2022/10/25 05:01:27;;;;;;;19.40;8.00;;;13.10;99.90;;;;;;5020358;28;20034;-65
2022/10/25 05:03:52;;;;;;;18.15;7.53;;;13.10;99.90;;;;;;5018654;28;20045;-66
2022/10/25 05:06:21;;;;;;;14.20;7.07;;;13.10;99.90;;;;;;5025196;28;20041;-64
2022/10/25 05:08:48;;;;;;;15.70;7.35;;;13.10;99.90;;;;;;5023493;28;20073;-65
2022/10/25 05:11:16;;;;;;;16.08;6.88;;;13.10;99.90;;;;;;5021984;28;20041;-64
2022/10/25 05:13:43;;;;;;;19.40;7.93;;;13.10;99.90;;;;;;5017242;28;20046;-64
2022/10/25 05:16:13;;;;;;;15.07;7.20;;;13.10;99.90;;;;;;5022195;28;20045;-64
2022/10/25 05:18:41;;;;;;;23.88;7.65;;;13.10;99.90;;;;;;5023587;28;20083;-65
2022/10/25 05:21:09;;;;;;;16.25;6.85;;;13.10;99.90;;;;;;5025285;28;20129;-65
2022/10/25 05:23:34;;;;;;;14.50;6.82;;;13.10;99.90;;;;;;5028560;28;20061;-65
2022/10/25 05:26:09;;;;;;;14.32;7.13;;;13.10;99.90;;;;;;5025342;28;20042;-65
2022/10/25 05:28:36;;;;;;;18.75;6.70;;;13.00;99.90;;;;;;5029086;28;20531;-66
2022/10/25 05:31:06;;;;;;;17.90;6.93;;;13.10;99.90;;;;;;5026734;28;20079;-64
2022/10/25 05:33:32;;;;;;;19.50;7.40;;;13.10;99.90;;;;;;5029324;28;20045;-63
2022/10/25 05:36:02;;;;;;;17.58;6.90;;;13.10;99.90;;;;;;5019480;28;20041;-63
2022/10/25 05:38:29;;;;;;;18.38;6.82;;;13.10;99.90;;;;;;5022837;28;20033;-65
2022/10/25 05:40:56;;;;;;;13.95;6.30;;;13.10;99.90;;;;;;5022836;28;20587;-65
2022/10/25 05:43:22;;;;;;;19.65;7.80;;;13.00;99.90;;;;;;5021959;28;20421;-64
2022/10/25 05:45:49;;;;;;;16.45;7.70;;;13.00;99.90;;;;;;5014910;28;20093;-65
2022/10/25 05:48:14;;;;;;;17.17;6.60;;;13.00;99.90;;;;;;5024289;28;20381;-63
2022/10/25 05:50:40;;;;;;;17.33;7.35;;;13.00;99.90;;;;;;5016670;28;20103;-63
2022/10/25 05:53:06;;;;;;;15.57;7.60;;;13.00;99.90;;;;;;5023054;28;20034;-65
2022/10/25 05:55:35;;;;;;;16.17;6.75;;;13.00;99.90;;;;;;5022170;28;20384;-65
2022/10/25 05:58:01;;;;;;;16.80;7.07;;;12.90;99.90;;;;;;5030013;28;20067;-63
2022/10/25 06:00:27;;;;;;;22.85;7.32;;;12.90;99.90;;;;;;5016304;28;20034;-63
2022/10/25 06:02:53;;;;;;;26.77;8.00;;;12.90;99.90;;;;;;5039891;28;20034;-63
2022/10/25 06:05:20;;;;;;;24.70;7.88;;;12.90;99.90;;;;;;5028134;28;20113;-65
2022/10/25 06:07:46;;;;;;;21.65;7.50;;;12.90;99.90;;;;;;5023418;28;20139;-67
2022/10/25 06:10:12;;;;;;;19.70;6.97;;;12.90;99.90;;;;;;5022176;28;20041;-62
2022/10/25 06:12:37;;;;;;;21.55;7.95;;;12.90;99.90;;;;;;5024403;28;20036;-64
2022/10/25 06:15:03;;;;;;;21.42;8.82;;;12.90;99.90;;;;;;5023792;28;20045;-63
2022/10/25 06:17:29;;;;;;;18.02;6.93;;;12.90;99.90;;;;;;5024119;28;20056;-64
2022/10/25 06:19:55;;;;;;;18.65;7.68;;;12.80;99.90;;;;;;5023267;28;20515;-65
2022/10/25 06:22:20;;;;;;;22.38;7.95;;;12.90;99.90;;;;;;5020707;28;20080;-62
2022/10/25 06:24:46;;;;;;;19.60;7.63;;;12.90;99.90;;;;;;5029372;28;20065;-63
2022/10/25 06:27:11;;;;;;;20.70;8.40;;;12.90;99.90;;;;;;5018170;28;20400;-63
2022/10/25 06:29:37;;;;;;;21.58;7.68;;;12.90;99.90;;;;;;5013608;28;20038;-68
2022/10/25 06:32:03;;;;;;;18.38;7.80;;;13.00;99.90;;;;;;5017930;28;20037;-62
2022/10/25 06:34:28;;;;;;;21.58;7.53;;;13.00;99.90;;;;;;5020613;28;20040;-63
2022/10/25 06:36:54;;;;;;;19.33;8.00;;;13.00;99.90;;;;;;5029201;28;20132;-63
2022/10/25 06:39:20;;;;;;;19.98;8.05;;;13.00;99.90;;;;;;5018812;28;20076;-63
2022/10/25 06:41:45;;;;;;;22.92;7.95;;;13.00;99.90;;;;;;5025224;28;20041;-66
2022/10/25 06:44:11;;;;;;;22.73;8.35;;;13.00;99.90;;;;;;5028580;28;20041;-63
2022/10/25 06:46:38;;;;;;;17.98;8.07;;;13.00;99.90;;;;;;5023526;28;20116;-63
2022/10/25 06:49:04;;;;;;;21.27;8.05;;;13.00;99.90;;;;;;5025171;28;20045;-64
2022/10/25 06:51:34;;;;;;;21.77;8.23;;;13.00;99.90;;;;;;5021548;28;20033;-63
2022/10/25 06:54:03;;;;;;;22.58;8.05;;;13.00;99.90;;;;;;5029894;28;20052;-65
2022/10/25 06:56:29;;;;;;;23.95;8.73;;;13.00;99.90;;;;;;5028472;28;20045;-65
2022/10/25 06:58:55;;;;;;;25.58;9.07;;;13.00;99.90;;;;;;5018037;28;20044;-66
2022/10/25 07:01:23;;;;;;;25.90;8.98;;;13.00;99.90;;;;;;5028572;28;20475;-65
2022/10/25 07:03:55;;;;;;;27.33;8.93;;;13.10;99.90;;;;;;5028781;28;20041;-66
2022/10/25 07:06:22;;;;;;;;;;;13.10;99.90;;;;;;5026014;28;20048;-66
2022/10/25 07:08:55;;;;;;;20.33;8.27;;;13.10;99.90;;;;;;5012084;28;19917;-65
2022/10/25 07:11:21;;;;;;;;;;;13.10;99.90;;;;;;5017760;28;20067;-65
2022/10/25 07:13:47;;;;;;;23.98;8.20;;;13.10;99.90;;;;;;5019212;28;20268;-66
2022/10/25 07:16:16;;;;;;;23.13;9.20;;;13.10;99.90;;;;;;5025858;28;20038;-65
2022/10/25 07:18:42;;;;;;;22.67;8.63;;;13.10;99.90;;;;;;5015764;28;20134;-66
2022/10/25 07:21:11;;;;;;;25.67;8.77;;;13.00;99.90;;;;;;5028633;28;20040;-66
2022/10/25 07:23:41;;;;;;;21.67;9.23;;;13.00;99.90;;;;;;5024600;28;20044;-63
2022/10/25 07:26:12;;;;;;;20.50;9.50;;;13.10;99.90;;;;;;5024350;28;20045;-64
2022/10/25 07:28:38;;;;;;;20.63;9.47;;;13.10;99.90;;;;;;5023292;28;20033;-66
2022/10/25 07:31:05;;;;;;;22.45;8.90;;;13.10;99.90;;;;;;5017715;28;20284;-66
2022/10/25 07:33:30;;;;;;;20.38;9.85;;;13.10;99.90;;;;;;5029738;28;20063;-66
2022/10/25 07:35:56;;;;;;;27.08;10.00;;;13.20;99.90;;;;;;5022428;28;20121;-66
2022/10/25 07:38:22;;;;;;;23.33;9.85;;;13.20;99.90;;;;;;5024673;28;20087;-65
2022/10/25 07:40:53;;;;;;;23.77;10.15;;;13.20;99.90;;;;;;5022953;28;20049;-65
2022/10/25 07:43:19;;;;;;;22.63;9.32;;;13.30;99.90;;;;;;5022500;28;20113;-65
2022/10/25 07:45:44;;;;;;;23.88;9.85;;;13.40;99.90;;;;;;5029077;28;20121;-65
2022/10/25 07:48:10;;;;;;;23.65;9.43;;;13.40;99.90;;;;;;5021278;28;20044;-66
2022/10/25 07:50:35;;;;;;;20.08;9.60;;;13.40;99.90;;;;;;5030576;28;20096;-65
2022/10/25 07:53:01;;;;;;;21.63;10.07;;;13.40;99.90;;;;;;5019661;28;20477;-65
2022/10/25 07:55:27;;;;;;;19.95;9.50;;;13.50;99.90;;;;;;5021959;28;20042;-66
2022/10/25 07:57:59;;;;;;;21.52;9.23;;;13.50;99.90;;;;;;5017252;28;20132;-65
2022/10/25 08:00:25;;;;;;;22.85;10.02;;;13.50;99.90;;;;;;5029252;28;20644;-66
2022/10/25 08:02:51;;;;;;;21.58;9.73;;;13.50;99.90;;;;;;5030389;28;20038;-66
2022/10/25 08:05:16;;;;;;;26.10;10.15;;;13.50;99.90;;;;;;5029041;28;20079;-66
2022/10/25 08:07:42;;;;;;;24.65;10.65;;;13.60;99.90;;;;;;5043459;28;20484;-64
2022/10/25 08:10:08;;;;;;;25.33;10.38;;;13.60;99.90;;;;;;5029126;28;20037;-66
2022/10/25 08:12:33;;;;;;;29.35;11.27;;;13.60;99.90;;;;;;5030271;28;20273;-66
2022/10/25 08:14:59;;;;;;;22.23;9.90;;;13.70;99.90;;;;;;5029269;28;20034;-66
2022/10/25 08:17:25;;;;;;;27.73;10.88;;;13.70;99.90;;;;;;5029560;28;20496;-65
2022/10/25 08:19:50;;;;;;;21.27;10.57;;;13.70;99.90;;;;;;5021668;28;20042;-65
2022/10/25 08:22:16;;;;;;;16.50;9.65;;;13.80;99.90;;;;;;5025033;28;20030;-66
2022/10/25 08:24:41;;;;;;;26.73;10.68;;;13.80;99.90;;;;;;5029369;28;20030;-65
2022/10/25 08:27:07;;;;;;;21.90;10.40;;;13.80;99.90;;;;;;5020274;28;20045;-65
2022/10/25 08:29:33;;;;;;;19.00;10.02;;;13.80;99.90;;;;;;5014033;28;20451;-66
2022/10/25 08:31:59;;;;;;;19.42;10.25;;;13.80;99.90;;;;;;5018851;28;20033;-63
2022/10/25 08:34:24;;;;;;;20.58;9.65;;;13.90;99.90;;;;;;5022220;28;20045;-64
2022/10/25 08:36:50;;;;;;;19.25;9.48;;;13.90;99.90;;;;;;5011086;28;20064;-66
2022/10/25 08:39:18;;;;;;;26.45;9.52;;;13.90;99.90;;;;;;5022849;28;20029;-66
2022/10/25 08:41:56;;;;;;;24.00;9.88;;;14.00;99.90;;;;;;5023883;28;20036;-66
2022/10/25 08:44:54;;;;;;;19.27;9.73;;;14.00;99.90;;;;;;5017947;28;20030;-66
2022/10/25 08:47:37;;;;;;;22.30;9.52;;;14.00;99.90;;;;;;5022812;28;20113;-66
2022/10/25 08:50:11;;;;;;;18.55;8.27;;;14.20;99.90;;;;;;5024802;28;20381;-66
2022/10/25 08:52:42;;;;;;;20.85;8.35;;;14.20;99.90;;;;;;5024475;28;20399;-64
2022/10/25 08:55:28;;;;;;;17.95;7.90;;;14.30;99.90;;;;;;5029063;28;20034;-66
2022/10/25 08:57:54;;;;;;;17.52;8.40;;;14.30;99.90;;;;;;5023533;28;20532;-67
2022/10/25 09:00:22;;;;;;;19.13;7.75;;;14.30;99.90;;;;;;5025216;28;20040;-66
2022/10/25 09:02:55;;;;;;;19.83;8.30;;;14.20;99.90;;;;;;5023974;28;20125;-66
2022/10/25 09:05:38;;;;;;;17.63;7.13;;;14.30;99.90;;;;;;5018065;28;20034;-66
2022/10/25 09:08:39;;;;;;;16.55;7.03;;;14.30;99.90;;;;;;5027513;28;20041;-62
2022/10/25 09:11:34;;;;;;;14.70;6.78;;;14.40;99.90;;;;;;5028110;28;20167;-65
2022/10/25 09:14:26;;;;;;;15.65;6.82;;;14.50;99.90;;;;;;5026215;28;20045;-66
2022/10/25 09:17:00;;;;;;;15.80;6.63;;;14.60;99.90;;;;;;5024234;28;20065;-66
2022/10/25 09:19:35;;;;;;;16.90;6.10;;;14.60;99.90;;;;;;5014391;28;20463;-65
2022/10/25 09:22:03;;;;;;;20.50;6.68;;;14.60;99.90;;;;;;5011242;28;20060;-66
2022/10/25 09:24:44;;;;;;;13.00;6.45;;;14.60;99.90;;;;;;5030948;28;20434;-66
2022/10/25 09:27:25;;;;;;;14.38;6.22;;;14.60;99.90;;;;;;5020284;28;20041;-63
2022/10/25 09:30:00;;;;;;;17.50;6.05;;;14.70;99.90;;;;;;5025626;28;20107;-63
2022/10/25 09:32:33;;;;;;;13.23;5.82;;;14.70;99.90;;;;;;5024539;28;20037;-66
2022/10/25 09:35:01;;;;;;;16.10;6.30;;;14.70;99.90;;;;;;5010624;28;20046;-64
2022/10/25 09:37:40;;;;;;;12.75;6.30;;;14.70;99.90;;;;;;5023572;28;20091;-66
2022/10/25 09:40:13;;;;;;;15.90;6.15;;;14.70;99.90;;;;;;5021246;28;20137;-65
2022/10/25 09:42:46;;;;;;;16.25;5.95;;;14.70;99.90;;;;;;5021526;28;20550;-65
2022/10/25 09:45:17;;;;;;;12.73;6.00;;;14.80;99.90;;;;;;5026724;28;20069;-66
2022/10/25 09:47:59;;;;;;;16.92;6.05;;;14.80;99.90;;;;;;5026839;28;20037;-66
2022/10/25 09:50:43;;;;;;;16.92;6.25;;;14.90;99.90;;;;;;5013705;28;20041;-65
2022/10/25 09:53:12;;;;;;;14.52;6.40;;;14.90;99.90;;;;;;5023049;28;20349;-65
2022/10/25 09:55:41;;;;;;;16.45;6.03;;;15.00;99.90;;;;;;5024447;28;20489;-66
2022/10/25 09:58:30;;;;;;;13.73;5.70;;;15.00;99.90;;;;;;5013682;28;20079;-66
2022/10/25 10:01:05;;;;;;;15.45;5.85;;;15.00;99.90;;;;;;5027146;28;20030;-66
2022/10/25 10:03:34;;;;;;;16.23;5.53;;;15.10;99.90;;;;;;5018991;28;20038;-66
2022/10/25 10:06:03;;;;;;;11.23;4.97;;;15.10;99.90;;;;;;5030372;28;20492;-65
2022/10/25 10:08:33;;;;;;;14.82;4.90;;;15.10;99.90;;;;;;5022119;28;20038;-66
2022/10/25 10:10:59;;;;;;;14.20;5.35;;;15.10;99.90;;;;;;5023135;28;20041;-66
2022/10/25 10:13:49;;;;;;;11.93;4.78;;;15.10;99.90;;;;;;5023240;28;20103;-66
2022/10/25 10:16:26;;;;;;;11.93;4.90;;;15.20;99.90;;;;;;5021831;28;20180;-66
2022/10/25 10:19:11;;;;;;;11.27;5.13;;;15.20;99.90;;;;;;5023139;28;20420;-64
2022/10/25 10:21:42;;;;;;;13.25;5.10;;;15.20;99.90;;;;;;5027299;28;20029;-66
2022/10/25 10:24:29;;;;;;;13.60;5.55;;;15.20;99.90;;;;;;5021119;28;20041;-66
2022/10/25 10:26:57;;;;;;;11.50;5.65;;;15.20;99.90;;;;;;5017018;28;20061;-66
2022/10/25 10:29:28;;;;;;;14.15;5.50;;;15.20;99.90;;;;;;5020261;28;20072;-66
2022/10/25 10:31:58;;;;;;;16.88;5.18;;;15.30;99.90;;;;;;5024687;28;20088;-66
2022/10/25 10:34:33;;;;;;;11.68;4.95;;;15.30;99.90;;;;;;5022778;28;20045;-66
2022/10/25 10:37:11;;;;;;;13.43;4.90;;;15.30;99.90;;;;;;5023278;28;20084;-66
2022/10/25 10:39:56;;;;;;;15.20;5.40;;;15.40;99.90;;;;;;5023979;28;20049;-66
2022/10/25 10:42:28;;;;;;;12.88;5.03;;;15.50;99.90;;;;;;5020808;28;20034;-66
2022/10/25 10:45:11;;;;;;;10.57;5.20;;;15.50;99.90;;;;;;5029410;28;20077;-65
2022/10/25 10:47:52;;;;;;;13.20;5.10;;;15.50;99.90;;;;;;5020660;28;20037;-66
2022/10/25 10:50:24;;;;;;;12.65;4.78;;;15.60;99.90;;;;;;5014866;28;20038;-66
2022/10/25 10:52:52;;;;;;;11.65;4.57;;;15.70;99.90;;;;;;5018453;28;20385;-66
2022/10/25 10:55:30;;;;;;;13.27;4.90;;;15.80;99.90;;;;;;5035137;28;20224;-66
2022/10/25 10:58:04;;;;;;;11.30;4.30;;;15.80;99.90;;;;;;5018113;28;20038;-66
2022/10/25 11:00:32;;;;;;;11.52;4.53;;;15.90;99.90;;;;;;5017019;28;20030;-66
2022/10/25 11:02:57;;;;;;;13.63;5.13;;;15.80;99.90;;;;;;5013611;28;20038;-66
2022/10/25 11:05:36;;;;;;;8.88;4.10;;;15.90;99.90;;;;;;5024752;28;20033;-66
2022/10/25 11:08:07;;;;;;;16.65;4.65;;;16.00;99.90;;;;;;5019739;28;20037;-66
2022/10/25 11:10:37;;;;;;;13.98;4.57;;;16.00;99.90;;;;;;5021986;28;20041;-65
2022/10/25 11:13:17;;;;;;;10.20;3.78;;;16.10;99.90;;;;;;5019842;28;20401;-64
2022/10/25 11:16:10;;;;;;;13.48;4.60;;;16.10;99.90;;;;;;5021361;28;20084;-66
2022/10/25 11:18:52;;;;;;;9.23;4.07;;;16.10;99.90;;;;;;5020915;28;20038;-66
2022/10/25 11:21:42;;;;;;;11.52;4.07;;;16.10;99.90;;;;;;5026292;28;20403;-65
2022/10/25 11:24:23;;;;;;;11.32;4.50;;;16.20;99.90;;;;;;5023455;28;20124;-66
2022/10/25 11:26:59;;;;;;;11.85;4.30;;;16.20;99.90;;;;;;5020403;28;20045;-67
2022/10/25 11:29:49;;;;;;;10.00;4.40;;;16.10;99.90;;;;;;5015000;28;20046;-66
2022/10/25 11:32:29;;;;;;;12.50;4.03;;;16.10;99.90;;;;;;5032299;28;20045;-66
2022/10/25 11:35:25;;;;;;;8.90;3.67;;;16.10;99.90;;;;;;5031846;28;20049;-66
2022/10/25 11:38:01;;;;;;;10.60;3.55;;;16.00;99.90;;;;;;5025370;28;20053;-65
2022/10/25 11:40:38;;;;;;;8.68;3.47;;;16.10;99.90;;;;;;5021594;28;20041;-66
2022/10/25 11:43:06;;;;;;;13.20;3.80;;;16.10;99.90;;;;;;5023641;28;20029;-64
2022/10/25 11:45:43;;;;;;;13.40;3.60;;;16.20;99.90;;;;;;5032221;28;20095;-66
2022/10/25 11:48:29;;;;;;;10.30;3.80;;;16.30;99.90;;;;;;5025281;28;20045;-66
2022/10/25 11:51:36;;;;;;;6.97;3.13;;;16.20;99.90;;;;;;5025385;28;20064;-66
2022/10/25 11:54:13;;;;;;;8.60;3.42;;;16.20;99.90;;;;;;5023083;28;20558;-66
2022/10/25 11:56:48;;;;;;;10.20;3.35;;;16.10;99.90;;;;;;5024978;28;20044;-66
2022/10/25 11:59:16;;;;;;;9.85;3.10;;;16.20;99.90;;;;;;5023451;28;20036;-66
2022/10/25 12:02:20;;;;;;;11.45;3.33;;;16.30;99.90;;;;;;5029823;28;20037;-66
2022/10/25 12:05:11;;;;;;;7.70;3.05;;;16.40;99.90;;;;;;5027376;28;20041;-63
2022/10/25 12:08:02;;;;;;;8.35;2.63;;;16.50;99.90;;;;;;5021555;28;20057;-64
2022/10/25 12:10:38;;;;;;;7.93;2.92;;;16.50;99.90;;;;;;5031916;28;20503;-65
2022/10/25 12:13:19;;;;;;;8.75;3.25;;;16.50;99.90;;;;;;5030776;28;20049;-65
2022/10/25 12:15:52;;;;;;;9.13;2.73;;;16.40;99.90;;;;;;5032205;28;20625;-65
2022/10/25 12:18:33;;;;;;;8.27;3.00;;;16.40;99.90;;;;;;5032052;28;20740;-65
2022/10/25 12:21:01;;;;;;;9.73;3.17;;;16.30;99.90;;;;;;5022348;28;20045;-65
2022/10/25 12:23:27;;;;;;;10.13;3.22;;;16.20;99.90;;;;;;5032394;28;20067;-64
2022/10/25 12:26:05;;;;;;;7.18;3.13;;;16.20;99.90;;;;;;5023127;28;20180;-65
2022/10/25 12:28:43;;;;;;;7.05;3.15;;;16.30;99.90;;;;;;5020845;28;20041;-65
2022/10/25 12:31:55;;;;;;;7.55;3.33;;;16.50;99.90;;;;;;5026460;28;20048;-64
2022/10/25 12:34:35;;;;;;;11.75;2.80;;;16.60;99.90;;;;;;5015695;28;20092;-63
2022/10/25 12:37:21;;;;;;;6.05;2.47;;;16.70;99.90;;;;;;5028215;28;20550;-66
2022/10/25 12:39:47;;;;;;;10.13;3.17;;;16.70;99.90;;;;;;5020539;28;20034;-65
2022/10/25 12:42:27;;;;;;;8.75;3.17;;;16.70;99.90;;;;;;5031859;28;20029;-65
2022/10/25 12:45:20;;;;;;;10.35;2.90;;;16.70;99.90;;;;;;5023900;28;20029;-66
2022/10/25 12:48:10;;;;;;;7.95;3.10;;;16.70;99.90;;;;;;5021467;28;20065;-65
2022/10/25 12:50:51;;;;;;;8.95;2.75;;;16.60;99.90;;;;;;5021430;28;20042;-66
2022/10/25 12:54:03;;;;;;;10.13;3.00;;;16.60;99.90;;;;;;5026348;28;20083;-65
2022/10/25 12:57:07;;;;;;;12.88;3.00;;;16.50;99.90;;;;;;5027344;28;20399;-65